Eduardo Braga

Chefscout - Cruzeiro
23 Apr 2028
Sonntag
Verarbeitung

Persönlichkeit

Anpassungsfähigkeit (20) Ehrgeiz (7) Kontroverse (12) Loyalität (9) Druck (16) Professionalität (8) Fairness (1) Temperament (15)

Profil

Trainerstil Demokratisch
Lizenz Nationale A
Entschlossenheit 8
Menschenführung 6
Motivation 14
Disziplin 14
Arbeitszufriedenheit
100%
Ermüdung
0%
Rolle Chefscout
Gehalt 39.6K p/W
Vertrag 14.03.2030

Leistung

Verhalten Gut
Trainingseffektivität
39%
Spielerentwicklung
55%
Verletzungsprävention
40%
Taktische Umsetzung
30%

Letzte Ereignisse

Nahm an einer Scouting-Besprechung teil jetzt
Empfahl ein Transferziel jetzt
Empfahl ein Transferziel jetzt
Nahm an einer Scouting-Besprechung teil jetzt
Nahm an einer Scouting-Besprechung teil jetzt
Spieler begutachtet jetzt
Spieler begutachtet 7T her
Spieler begutachtet 7T her

Aktuell beobachtet

409
Spieler Verein Status Fähigkeit Vertrauen Beobachtet Zuletzt beobachtet Letzte Stimme
Manu Koné AS Roma Aktiv 177 / 167 40% 7 22.04.2028 -
Honest Ahanor Atalanta Aktiv 134 / 141 40% 2 22.04.2028 -
Neco Williams Wrexham Aktiv 147 / 151 40% 4 22.04.2028 -
Jayden Bogle Leeds United Aktiv 148 / 143 40% 4 20.04.2028 -
Sandro Tonali Tottenham Aktiv 178 / 177 40% 5 20.04.2028 -
Tosin Adarabioyo West Bromwich Albion Aktiv 150 / 140 40% 2 20.04.2028 -
Quilindschy Hartman Burnley Aktiv 153 / 147 40% 3 18.04.2028 -
Alex Scott Bournemouth Aktiv 156 / 155 40% 5 18.04.2028 -
Callum Brittain Middlesbrough Aktiv 133 / 133 40% 1 18.04.2028 -
André Wolverhampton Aktiv 148 / 154 40% 5 16.04.2028 -
Angeliño AS Roma Aktiv 147 / 153 40% 4 16.04.2028 -
Bafodé Diakité Plymouth Argyle Aktiv 144 / 144 40% 3 16.04.2028 -
Nico González Newcastle United Aktiv 171 / 165 40% 2 15.04.2028 Mehr Infos nötig
Juanlu Bournemouth Aktiv 148 / 156 40% 2 15.04.2028 -
Tino Livramento Newcastle United Aktiv 169 / 162 40% 1 15.04.2028 -
Quinten Timber Crystal Palace Aktiv 153 / 156 40% 2 14.04.2028 -
Ethan Ampadu Leeds United Aktiv 143 / 150 40% 4 13.04.2028 -
Moisés Caicedo Chelsea Aktiv 178 / 170 40% 6 13.04.2028 -
Adam Wharton Crystal Palace Aktiv 154 / 163 40% 3 13.04.2028 -
Pedro Porro Tottenham Aktiv 157 / 155 40% 4 09.04.2028 -
Amadou Onana Aston Villa Aktiv 164 / 160 40% 3 09.04.2028 -
Max Bird Birmingham Aktiv 136 / 135 40% 5 09.04.2028 -
Max Johnston Derby County Aktiv 139 / 136 40% 4 06.04.2028 -
Jack Hinshelwood Watford Aktiv 151 / 152 40% 4 05.04.2028 -
Shea Charles Southampton Aktiv 151 / 145 40% 2 05.04.2028 -
Ethan Galbraith Swansea City Aktiv 145 / 135 40% 1 05.04.2028 -
Vitinho Botafogo Aktiv 135 / 137 40% 9 02.04.2028 -
Jacques Ekomié Wrexham Aktiv 141 / 138 40% 2 02.04.2028 -
Jan Paul van Hecke Tottenham Aktiv 168 / 163 40% 3 02.04.2028 -
Óscar Mingueza Crystal Palace Aktiv 157 / 152 40% 5 01.04.2028 -
Jake O'Brien Everton Aktiv 148 / 151 40% 2 31.03.2028 -
Vitão Flamengo Aktiv 146 / 141 40% 2 31.03.2028 -
Ramón Valladolid Aktiv 142 / 134 40% 1 30.03.2028 -
Joe Rodon Blackburn Rovers Aktiv 143 / 142 40% 2 27.03.2028 -
Nordi Mukiele Sunderland Aktiv 143 / 151 40% 4 22.03.2028 -
Marcos Antonio Sport Recife Aktiv 138 / 142 40% 7 19.03.2028 -
Aaron Hickey Brentford Aktiv 157 / 148 40% 5 19.03.2028 -
Boubacar Kamara Aston Villa Aktiv 168 / 167 40% 7 19.03.2028 -
Souffian El Karouani Al-Qadisiyah Aktiv 135 / 139 40% 2 18.03.2028 -
Agustín Giay Palmeiras Aktiv 137 / 138 40% 3 18.03.2028 -
Ousmane Diomande Nottingham Forest Aktiv 165 / 162 40% 1 18.03.2028 -
Danilo Botafogo Aktiv 142 / 144 40% 2 16.03.2028 -
Alexandro Bernabei Internacional Aktiv 135 / 135 40% 6 15.03.2028 -
Matteo Ruggeri Middlesbrough Aktiv 161 / 154 40% 5 15.03.2028 -
Caio Alexandre Bahia Aktiv 134 / 135 40% 4 12.03.2028 -
Exequiel Palacios Lazio Aktiv 162 / 161 40% 2 11.03.2028 -
Vitaly Janelt Derby County Aktiv 148 / 146 40% 3 10.03.2028 -
Luciano Juba Bahia Aktiv 133 / 135 40% 3 10.03.2028 -
Noussair Mazraoui Manchester United Aktiv 161 / 155 40% 2 07.03.2028 -
Youri Tielemans Manchester United Aktiv 161 / 165 40% 2 05.03.2028 -
Maximiliano Araújo West Ham United Aktiv 160 / 154 40% 3 05.03.2028 -
Welington Southampton Aktiv 139 / 133 40% 3 03.03.2028 -
Reece James Chelsea Aktiv 172 / 175 40% 2 02.03.2028 -
Mateu Morey Girona Aktiv 133 / 138 40% 1 01.03.2028 -
Youssouf Fofana AC Milan Aktiv 152 / 154 40% 1 29.02.2028 -
Jarrad Branthwaite Everton Aktiv 156 / 159 40% 1 29.02.2028 -
Arthur Flamengo Aktiv 143 / 141 40% 3 26.02.2028 -
Adrien Truffert Bournemouth Aktiv 151 / 155 40% 3 26.02.2028 -
Lucas Piton Vasco da Gama Aktiv 134 / 131 40% 3 25.02.2028 -
Jordan Beyer Burnley Aktiv 146 / 139 40% 2 25.02.2028 -
Gerard Martín Barcelona Aktiv 159 / 154 40% 3 14.02.2028 -
Manuel Ugarte Leicester City Aktiv 151 / 151 40% 1 11.02.2028 -
Martín Zubimendi Arsenal Aktiv 168 / 168 40% 1 16.01.2028 -
Mats Wieffer Brighton Aktiv 151 / 150 40% 1 11.01.2028 -
Rico Henry River Plate Aktiv 145 / 141 40% 2 09.01.2028 -
Ryan Corinthians Aktiv 119 / 117 79% 1 27.12.2027 Befürworten
Pedro Flamengo Verloren 137 / 141 79% 1 07.12.2027 -
Nicolas Jackson Aston Villa Aktiv 158 / 149 40% 3 02.12.2027 -
Kai Havertz Arsenal Aktiv 171 / 163 40% 1 02.12.2027 -
Gabriel Martinelli Arsenal Aktiv 166 / 169 40% 1 02.12.2027 -
Salvador Blopá Sporting CP Aktiv 124 / 126 40% 9 29.11.2027 -
Josh Keeley Luton Town Aktiv 138 / 135 40% 4 29.11.2027 -
Anthony Patterson Wrexham Aktiv 139 / 136 40% 6 29.11.2027 -
Christos Mandas Lazio Aktiv 146 / 150 40% 2 29.11.2027 -
Bernardo Lima Porto Aktiv 108 / 119 40% 1 29.11.2027 -
Lucas Bergvall Tottenham Aktiv 152 / 153 40% 1 29.11.2027 -
Evgeny Latyshonok Nizhniy Novgorod Aktiv 123 / 128 40% 1 26.11.2027 -
Lukas Jensen Millwall Aktiv 128 / 121 40% 1 26.11.2027 -
Caoimhin Kelleher Brentford Aktiv 158 / 154 40% 15 25.11.2027 -
Michael Cooper Sheffield United Aktiv 137 / 137 40% 6 25.11.2027 -
Manuel Roffo Hajduk Split Aktiv 144 / 136 40% 6 25.11.2027 -
Patrick Schulte Columbus Crew Aktiv 131 / 127 40% 6 24.11.2027 -
Alejandro Rodríguez Melgar Aktiv 130 / 128 40% 5 24.11.2027 -
Roman Celentano FC Cincinnati Aktiv 128 / 129 40% 5 23.11.2027 -
Aaron Ramsdale Southampton Aktiv 154 / 153 40% 8 23.11.2027 -
Ezequiel Centurión River Plate Aktiv 123 / 124 40% 8 22.11.2027 -
James Trafford Leeds United Aktiv 148 / 148 40% 3 21.11.2027 -
Gabriel Brazão Santos Aktiv 138 / 138 40% 8 21.11.2027 -
Dean Henderson Crystal Palace Aktiv 159 / 156 40% 11 20.11.2027 -
Gabriel Batista Botafogo Aktiv 131 / 129 40% 9 20.11.2027 -
Nathan Trott Cardiff City Aktiv 126 / 133 40% 4 19.11.2027 -
Fran Vieites Walsall Aktiv 121 / 129 40% 2 19.11.2027 -
Matt Freese Shakhtar Aktiv 136 / 138 40% 1 19.11.2027 -
Radek Vítek Middlesbrough Aktiv 149 / 145 40% 7 18.11.2027 -
Dayne St. Clair Inter Miami CF Aktiv 131 / 126 40% 4 18.11.2027 -
Michele Di Gregorio Juventus Aktiv 160 / 154 40% 5 17.11.2027 Beobachten
Carl Rushworth Aston Villa Aktiv 151 / 147 40% 2 17.11.2027 -
Hugo Souza Corinthians Aktiv 145 / 140 40% 10 16.11.2027 -
Nikita Haikin Bodo/Glimt Aktiv 148 / 142 40% 8 15.11.2027 -
Leopold Wahlstedt Rosenborg Aktiv 119 / 121 40% 1 15.11.2027 -
Alexandr Maximenko Spartak Moscow Aktiv 137 / 130 40% 1 15.11.2027 -
Josh King Newcastle United Aktiv 137 / 147 40% 3 14.11.2027 -
Jorrel Hato Chelsea Aktiv 150 / 160 40% 3 14.11.2027 -
Oscar Steinke Brånby Hammarby Aktiv 105 / 112 40% 1 14.11.2027 -
Matias Siltanen Malmo FF Aktiv 120 / 128 40% 3 12.11.2027 -
Sol Brynn Bradford City Aktiv 133 / 136 40% 3 12.11.2027 -
Kauã Moraes Flamengo Aktiv 124 / 128 40% 4 12.11.2027 -
Vinícius Lira São Paulo Aktiv 115 / 120 40% 1 12.11.2027 -
Carlos Coronel Fluminense Aktiv 130 / 135 40% 9 11.11.2027 -
Lucas Arcanjo Vitória Aktiv 134 / 128 40% 5 11.11.2027 -
Angus Gunn San Jose Earthquakes Aktiv 128 / 125 40% 3 10.11.2027 -
Ollie Scarles West Ham United Aktiv 134 / 140 40% 4 06.11.2027 -
Alex Meret Napoli Aktiv 155 / 153 40% 7 06.11.2027 -
Souza Tottenham Aktiv 131 / 136 40% 2 06.11.2027 -
Adrian Skogmar Malmo FF Aktiv 115 / 123 40% 1 06.11.2027 -
Zack Steffen Colorado Rapids Aktiv 128 / 129 40% 5 05.11.2027 -
Agustín Rossi Flamengo Aktiv 140 / 139 40% 7 05.11.2027 -
Hugo Rojas Instituto Aktiv 108 / 112 40% 1 03.11.2027 -
Martim Cunha Porto Aktiv 111 / 116 40% 1 03.11.2027 -
Nahuel Leivas Montevideo City Torque Aktiv 106 / 108 40% 2 02.11.2027 -
Azizbek To'lqinbekov Bunyodkor Aktiv 98 / 105 40% 1 02.11.2027 -
Diego Enríquez Sporting Cristal Aktiv 134 / 137 40% 6 29.10.2027 -
Lukáš Horníček Burnley Aktiv 153 / 147 40% 4 28.10.2027 -
Carlos Miguel Palmeiras Aktiv 140 / 138 40% 2 27.10.2027 -
Vladan Kovačević Norwich City Aktiv 123 / 121 40% 4 26.10.2027 -
Mads Hermansen West Ham United Aktiv 146 / 142 40% 8 23.10.2027 -
Jacob Widell Zetterström Derby County Aktiv 134 / 133 40% 11 21.10.2027 -
Diego Romero Universitario Aktiv 123 / 125 40% 2 20.10.2027 -
Agustín De la Cuesta Racing Aktiv 106 / 114 40% 2 19.10.2027 -
Tomás Marchiori Zamalek Aktiv 134 / 131 40% 2 19.10.2027 -
Caleb Yirenkyi Coventry City Aktiv 145 / 150 40% 2 18.10.2027 -
Bart Verbruggen Liverpool Aktiv 162 / 161 40% 1 16.10.2027 -
Gabriel Grando São Paulo Aktiv 132 / 131 40% 4 14.10.2027 -
Giorgi Mamardashvili Liverpool Aktiv 165 / 169 40% 2 09.10.2027 -
Robin Roefs Sunderland Aktiv 155 / 147 40% 2 08.10.2027 -
Gonçalo Oliveira Benfica Aktiv 111 / 128 40% 2 08.10.2027 -
Sebastián Ramírez Aguilas Doradas Aktiv 106 / 109 40% 3 08.10.2027 -
Ľubomír Belko Viking Aktiv 135 / 127 40% 5 05.10.2027 -
Léo Jardim Vasco da Gama Aktiv 135 / 140 40% 6 03.10.2027 -
Renato Solís Sporting Cristal Aktiv 126 / 127 40% 1 02.10.2027 -
Facundo Balatti Penarol Aktiv 106 / 116 40% 1 02.10.2027 -
Christos Mouzakitis Hull City Aktiv 138 / 137 40% 1 02.10.2027 -
Ayden Heaven Portsmouth Aktiv 141 / 147 40% 2 01.10.2027 -
Josh Acheampong Everton Aktiv 145 / 148 40% 3 29.09.2027 -
Sam Tickle Modena Aktiv 141 / 141 40% 1 29.09.2027 -
Eliás Montiel Borussia Dortmund Aktiv 137 / 139 40% 1 28.09.2027 -
Viktor Johansson Stoke City Aktiv 139 / 142 40% 4 27.09.2027 -
Mile Svilar AS Roma Aktiv 171 / 166 40% 5 24.09.2027 -
Giovanni Leoni Lincoln City Aktiv 140 / 149 40% 2 22.09.2027 -
Agustín Obregón River Plate Aktiv 114 / 121 40% 1 22.09.2027 -
Miguel Figueiredo Benfica Aktiv 115 / 128 40% 2 21.09.2027 -
Toni Tamarit Alverca Aktiv 119 / 123 40% 2 21.09.2027 -
Zion Suzuki Aston Villa Aktiv 148 / 154 40% 4 19.09.2027 -
Victor Hernandez Santa Fe Aktiv 120 / 122 40% 2 19.09.2027 -
Malick Yalcouyé Brighton Aktiv 127 / 130 40% 1 19.09.2027 -
Cleiton Spartak Moscow Aktiv 134 / 127 40% 2 16.09.2027 -
Kepa Arrizabalaga Arsenal Aktiv 154 / 153 40% 1 16.09.2027 -
Andrew Flamengo Aktiv 136 / 138 40% 2 09.09.2027 -
Luis Ingolotti Atlético Tucumán Aktiv 131 / 128 40% 2 08.09.2027 -
André Gomes Casa Pia Aktiv 136 / 139 40% 2 08.09.2027 -
Igor Felisberto Sport Recife Aktiv 99 / 111 40% 1 04.09.2027 -
Eduardo Felicíssimo Sporting CP Aktiv 114 / 124 40% 1 01.09.2027 -
José Cavadia Aguilas Doradas Aktiv 106 / 117 40% 1 01.09.2027 -
Franco Petroli Lanús Aktiv 126 / 133 40% 1 31.08.2027 -
Lautaro Morales Lanús Aktiv 135 / 127 40% 2 29.08.2027 -
Luka Vušković Tottenham Aktiv 148 / 155 40% 2 29.08.2027 -
Nazareno Roselli Defensa y Justicia Aktiv 110 / 120 40% 1 27.08.2027 -
Álvaro Montero Al Ain Aktiv 132 / 139 40% 1 24.08.2027 -
Mike Maignan AC Milan Aktiv 162 / 171 40% 7 19.08.2027 -
Arijanet Murić Sassuolo Aktiv 149 / 145 40% 6 19.08.2027 -
Mattia Puzone Siracusa Aktiv 96 / 113 40% 1 19.08.2027 -
Tommaso Cecotti Carpi Aktiv 93 / 98 40% 1 19.08.2027 -
Tomás Durso Atlético Tucumán Aktiv 128 / 126 40% 1 16.08.2027 -
Jonathan Klinsmann Cesena Aktiv 134 / 132 40% 5 15.08.2027 -
Elia Caprile Cagliari Aktiv 153 / 155 40% 4 13.08.2027 -
Riccardo Gagno Vicenza Aktiv 127 / 130 40% 2 12.08.2027 -
Álvaro Fernández Valencia Aktiv 147 / 147 40% 1 10.08.2027 -
Maílson Al-Taawoun Aktiv 134 / 137 40% 2 06.08.2027 -
Sascha Britschgi AC Milan Aktiv 117 / 126 40% 1 06.08.2027 -
Riley Owen Stevenage Aktiv 109 / 109 40% 1 06.08.2027 -
Mbekezeli Mbokazi Chicago Fire Aktiv 130 / 130 40% 1 05.08.2027 -
Germán Barbas Burgos Aktiv 108 / 116 40% 1 05.08.2027 -
Bongani Jali Free State Stars Aktiv 94 / 106 40% 1 05.08.2027 -
Bruno Varela Al-Hazem Aktiv 137 / 126 40% 4 03.08.2027 -
Oliver Dovin Coventry City Aktiv 130 / 134 40% 2 29.07.2027 -
Alex Palmer Ipswich Town Aktiv 130 / 130 40% 3 25.07.2027 -
Simone Scuffet Pisa Aktiv 138 / 132 40% 3 22.07.2027 -
Denis Adamov Zenit Aktiv 132 / 127 40% 1 12.07.2027 -
Wellerson Oeste Aktiv 105 / 105 42% 1 / 1m 07.07.2027 -
Kahiser Lenis Ceará Aktiv 120 / 120 30% 1 / 1m 07.07.2027 -
Josh Griffiths West Bromwich Albion Aktiv 124 / 131 40% 1 03.07.2027 -
Ivor Pandur Hull City Aktiv 124 / 124 40% 2 28.06.2027 -
Grégoire Coudert Burnley Aktiv 133 / 136 40% 1 28.06.2027 -
Joseph Leclercq Tottenham Aktiv 155 / 152 40% 3 22.06.2027 -
Balázs Tóth Blackburn Rovers Aktiv 131 / 134 40% 2 22.06.2027 -
Andrey Santa Cruz Aktiv 110 / 113 79% 1 14.06.2027 Befürworten
Christian Walton Ipswich Town Aktiv 125 / 130 40% 1 09.06.2027 -
Sławomir Abramowicz Jagiellonia Aktiv 130 / 123 40% 1 04.06.2027 -
Sorba Thomas Stoke City Aktiv 133 / 127 40% 4 31.05.2027 -
Morgan Gibbs-White Nottingham Forest Aktiv 157 / 155 40% 9 30.05.2027 -
Chemsdine Talbi Sunderland Aktiv 144 / 144 40% 4 30.05.2027 -
Che Adams Torino Aktiv 140 / 143 40% 3 29.05.2027 -
Carlos Vicente Birmingham Aktiv 147 / 146 40% 2 29.05.2027 -
Morgan Rogers Chelsea Aktiv 164 / 157 40% 1 29.05.2027 -
Jack McGlynn Stoke City Aktiv 135 / 139 40% 1 28.05.2027 -
Fer López Wolverhampton Aktiv 128 / 135 40% 1 28.05.2027 -
Samuel Edozie Southampton Aktiv 135 / 132 40% 2 27.05.2027 -
Eddie Nketiah Crystal Palace Aktiv 135 / 144 40% 5 26.05.2027 -
Gonzalo Fulham Aktiv 144 / 145 40% 3 26.05.2027 -
Joe Gelhardt Hull City Aktiv 134 / 137 40% 4 26.05.2027 -
Kevin Fulham Aktiv 144 / 151 40% 5 26.05.2027 -
Savinho Tottenham Aktiv 159 / 152 40% 4 26.05.2027 -
Christian Pulisic AC Milan Aktiv 168 / 160 40% 1 26.05.2027 -
Emanuel Emegha Chelsea Aktiv 143 / 146 40% 1 26.05.2027 -
Toby Collyer West Bromwich Albion Aktiv 126 / 137 40% 1 25.05.2027 -
Kwadwo Baah Watford Aktiv 123 / 133 40% 1 25.05.2027 -
Jack Rudoni Coventry City Aktiv 140 / 135 40% 3 23.05.2027 -
Manor Solomon West Ham United Aktiv 143 / 142 40% 3 22.05.2027 -
Mohammed Kudus Tottenham Aktiv 156 / 158 40% 2 22.05.2027 -
Fábio Carvalho Brentford Aktiv 136 / 138 40% 1 22.05.2027 -
Tyrese Campbell Sheffield United Aktiv 131 / 126 40% 1 22.05.2027 -
Malick Fofana Sunderland Aktiv 149 / 150 40% 3 21.05.2027 -
Jordan Pickford Everton Aktiv 157 / 153 40% 2 19.05.2027 -
Yeremy Pino Crystal Palace Aktiv 147 / 148 40% 3 19.05.2027 -
Łukasz Skorupski Bologna Aktiv 150 / 140 40% 2 19.05.2027 -
Iliman N'Diaye Everton Aktiv 167 / 155 40% 2 19.05.2027 -
Zé Lucas Cruzeiro Aktiv 125 / 133 30% 1 / 1m 19.05.2027 -
Matheus Araújo Oeste Aktiv 93 / 93 52% 1 / 1m 19.05.2027 -
Jonas Oeste Aktiv 77 / 82 30% 1 / 1m 19.05.2027 -
Harry Wilson Leeds United Aktiv 146 / 145 40% 4 18.05.2027 -
Mikkel Damsgaard Brentford Aktiv 143 / 142 40% 1 17.05.2027 -
Assane Diao Como Aktiv 151 / 149 40% 7 16.05.2027 -
Rodrigo Gomes Wolverhampton Aktiv 142 / 145 40% 1 15.05.2027 -
Solly March Brighton Aktiv 148 / 153 40% 3 13.05.2027 -
Jacob Ramsey Newcastle United Aktiv 147 / 153 40% 2 11.05.2027 -
Mohamed-Ali Cho Hull City Aktiv 139 / 138 40% 5 10.05.2027 -
James Maddison Tottenham Aktiv 153 / 156 40% 4 10.05.2027 -
Jason Knight Bristol City Aktiv 129 / 123 40% 1 07.05.2027 -
Xavi Simons Tottenham Aktiv 157 / 156 40% 3 04.05.2027 -
Marcus Edwards Burnley Aktiv 143 / 139 40% 2 03.05.2027 -
Bobby Clark Derby County Aktiv 128 / 130 40% 1 02.05.2027 -
John McGinn Aston Villa Aktiv 154 / 149 40% 3 01.05.2027 -
Will Mannion Charlton Athletic Aktiv 113 / 108 40% 1 30.04.2027 -
Kenan Yıldız Juventus Aktiv 161 / 159 40% 1 29.04.2027 -
Kevin Schade Chelsea Aktiv 154 / 154 40% 1 29.04.2027 -
Yehor Yarmoliuk Brentford Aktiv 143 / 145 40% 2 27.04.2027 -
Giacomo Raspadori Atalanta Aktiv 152 / 140 40% 2 25.04.2027 -
Igor Jesus Nottingham Forest Aktiv 147 / 139 40% 2 24.04.2027 -
Gianluca Scamacca Atalanta Aktiv 156 / 148 40% 2 24.04.2027 -
Leroy Sané Galatasaray Aktiv 152 / 154 40% 2 23.04.2027 -
Ilyas Ansah Hull City Aktiv 128 / 133 40% 2 21.04.2027 -
Abu Kamara Portsmouth Aktiv 116 / 125 40% 1 21.04.2027 -
Murphy Cooper Plymouth Argyle Aktiv 114 / 110 40% 2 20.04.2027 -
Jak Alnwick Huddersfield Town Aktiv 113 / 111 40% 1 18.04.2027 -
Joel Pereira Reading Aktiv 114 / 116 40% 1 18.04.2027 -
Marcelo Allende Mamelodi Sundowns Aktiv 130 / 126 40% 3 16.04.2027 -
Lewis Hall Newcastle United Aktiv 147 / 148 40% 1 15.04.2027 -
Bongani Zungu Ajax Cape Town Aktiv 129 / 130 40% 2 14.04.2027 -
Yoane Wissa Newcastle United Aktiv 142 / 142 40% 2 13.04.2027 -
Ianis Hagi Alanyaspor Aktiv 122 / 132 40% 1 13.04.2027 -
Jackson Muleka Konyaspor Aktiv 133 / 126 40% 1 13.04.2027 -
Hidemasa Morita Hull City Aktiv 138 / 145 40% 2 11.04.2027 -
Themba Williams Ajax Cape Town Aktiv 124 / 121 40% 2 11.04.2027 -
Mohamadou Kanté Crawley Town Aktiv 117 / 123 40% 1 11.04.2027 -
Zian Flemming Ipswich Town Aktiv 129 / 135 40% 2 10.04.2027 -
Azor Matusiwa Ipswich Town Aktiv 136 / 134 40% 1 10.04.2027 -
Álex Berenguer Lokomotiv Moscow Aktiv 154 / 153 40% 6 08.04.2027 -
Sam Bell Bristol City Aktiv 126 / 124 40% 1 08.04.2027 -
Václav Černý Besiktas Aktiv 147 / 142 40% 1 07.04.2027 -
Samuel Justo Sporting CP Aktiv 112 / 111 40% 1 07.04.2027 -
Antoni Milambo Brentford Aktiv 143 / 147 40% 1 07.04.2027 -
Nicolò Zaniolo Udinese Aktiv 140 / 136 40% 3 05.04.2027 -
Santiago Castro AS Roma Aktiv 142 / 151 40% 1 05.04.2027 -
Ilias Sebaoui Sint-Truiden Aktiv 134 / 123 40% 1 03.04.2027 -
Callum O'Hare Sheffield United Aktiv 129 / 126 40% 1 03.04.2027 -
Malcom Al Jazira Aktiv 146 / 151 40% 1 29.03.2027 -
Finn Azaz Southampton Aktiv 131 / 123 40% 3 28.03.2027 -
Diogo Gonçalves Konyaspor Aktiv 128 / 124 40% 1 28.03.2027 -
Alexander Nübel Besiktas Aktiv 153 / 141 40% 1 28.03.2027 -
Emiliano Martínez Chelsea Aktiv 157 / 158 40% 1 28.03.2027 -
Sorriso Famalicao Aktiv 126 / 134 40% 6 27.03.2027 -
Carlos Forbs Club Brugge Aktiv 128 / 131 40% 7 27.03.2027 -
Mateja Stjepanović Moreirense Aktiv 127 / 122 40% 1 26.03.2027 -
Ricardo Horta Braga Aktiv 151 / 141 40% 11 25.03.2027 -
Pablo Rosario Porto Aktiv 145 / 143 40% 5 24.03.2027 -
Pepê Porto Aktiv 144 / 140 40% 10 24.03.2027 -
Fabijan Buntić Farense Aktiv 114 / 108 40% 1 23.03.2027 -
Sébastien Cibois Portimonense Aktiv 109 / 107 40% 1 23.03.2027 -
Juan Soriano Académico de Viseu Aktiv 128 / 127 40% 1 23.03.2027 -
Hwang In-Beom Porto Aktiv 148 / 144 40% 5 22.03.2027 -
Oli McBurnie Hull City Aktiv 140 / 134 40% 2 22.03.2027 -
Nuno Santos Sporting CP Aktiv 136 / 138 40% 7 21.03.2027 -
Geny Sporting CP Aktiv 153 / 145 40% 1 21.03.2027 -
Tomáš Rigo Stoke City Aktiv 136 / 131 40% 1 21.03.2027 -
Lovro Zvonarek Estrela da Amadora Aktiv 126 / 128 40% 1 21.03.2027 -
Ryan Sessegnon Fulham Aktiv 143 / 152 40% 1 20.03.2027 -
Sikou Niakaté Braga Aktiv 136 / 139 40% 2 19.03.2027 -
Gustaf Lagerbielke Braga Aktiv 135 / 138 40% 1 19.03.2027 -
Brooke Norton-Cuffy Hull City Aktiv 132 / 144 40% 1 19.03.2027 -
Alberto Costa Porto Aktiv 146 / 139 40% 4 17.03.2027 -
Mario Dorgeles Braga Aktiv 137 / 135 40% 4 17.03.2027 -
Majid Jahanbakhsh Rah Ahan Aktiv 123 / 132 40% 5 17.03.2027 -
Mateo Pellegrino Fiorentina Aktiv 138 / 138 40% 1 15.03.2027 -
William Gomes Porto Aktiv 137 / 151 40% 8 13.03.2027 -
Roberto Fernández Braga Aktiv 147 / 134 40% 17 12.03.2027 -
Nicolò Cambiaghi Bologna Aktiv 147 / 141 40% 1 12.03.2027 -
Yunus Akgün Galatasaray Aktiv 145 / 143 40% 1 12.03.2027 -
Rafik Guitane Estoril Praia Aktiv 139 / 136 40% 8 10.03.2027 -
Yanis Begraoui Estoril Praia Aktiv 139 / 132 40% 16 08.03.2027 -
Victor Froholdt Porto Aktiv 145 / 148 40% 6 08.03.2027 -
Ollie Watkins Al-Hilal Aktiv 154 / 150 40% 2 08.03.2027 -
Julián Quiñones Al-Qadisiyah Aktiv 153 / 148 40% 2 08.03.2027 -
Enrico Delprato Parma Aktiv 145 / 137 40% 1 08.03.2027 -
Noah Okafor Leeds United Aktiv 143 / 135 40% 3 04.03.2027 -
Santi García Gil Vicente Aktiv 133 / 130 40% 1 04.03.2027 -
Pau Víctor Braga Aktiv 137 / 139 40% 11 27.02.2027 -
Samu Vitoria Guimaraes Aktiv 126 / 125 40% 4 22.02.2027 -
Ismael Díaz Leon Aktiv 135 / 123 40% 4 22.02.2027 -
Luís Esteves Atlas Aktiv 131 / 135 40% 1 22.02.2027 -
Brian Brobbey Sunderland Aktiv 147 / 145 40% 1 22.02.2027 -
Alan Varela Porto Aktiv 144 / 151 40% 9 19.02.2027 -
Iván Fresneda Sporting CP Aktiv 139 / 135 40% 10 18.02.2027 -
Steven Bergwijn Al-Ittihad Aktiv 150 / 150 40% 1 18.02.2027 -
Diego Lainez Tigres Aktiv 131 / 134 40% 2 15.02.2027 -
Fredrik Aursnes Benfica Aktiv 153 / 154 40% 1 14.02.2027 -
Enzo Barrenechea Benfica Aktiv 151 / 146 40% 8 12.02.2027 -
Jordan Holsgrove Estoril Praia Aktiv 127 / 133 40% 1 09.02.2027 -
Dwight McNeil Crystal Palace Aktiv 144 / 139 40% 1 02.02.2027 -
Samuel Lino Flamengo Aktiv 145 / 136 40% 9 31.01.2027 -
Patrick Sequeira Casa Pia Aktiv 124 / 122 40% 2 28.01.2027 -
Joan Femenías Penafiel Aktiv 120 / 112 40% 1 28.01.2027 -
João Gonçalves Oliveirense Aktiv 120 / 120 40% 1 28.01.2027 -
Erick Pulga Bahia Aktiv 132 / 129 40% 1 27.01.2027 -
Brais Méndez RC Lens Aktiv 147 / 142 40% 3 25.01.2027 -
Dodi Lukébakio Benfica Aktiv 143 / 143 40% 9 24.01.2027 -
Brenden Aaronson Leeds United Aktiv 135 / 145 40% 2 24.01.2027 -
Noah Sadiki Sunderland Aktiv 145 / 146 40% 1 24.01.2027 -
Carlos Álvarez Club America Aktiv 136 / 140 40% 8 23.01.2027 -
James Garner Everton Aktiv 148 / 152 40% 1 20.01.2027 -
Victor Sá São Paulo Aktiv 123 / 123 40% 2 17.01.2027 -
João Palhinha Benfica Aktiv 149 / 148 40% 8 16.01.2027 -
Leandro Barreiro Benfica Aktiv 147 / 141 40% 12 14.01.2027 -
Nuno Moreira Vasco da Gama Verloren 137 / 133 40% 4 12.01.2027 -
Dara O'Shea Ipswich Town Aktiv 140 / 140 40% 1 11.01.2027 -
Anel Ahmedhodžić Burnley Aktiv 130 / 130 40% 1 11.01.2027 -
Memphis Depay Corinthians Aktiv 146 / 143 40% 6 08.01.2027 -
Amine Adli Bournemouth Aktiv 143 / 145 40% 2 08.01.2027 -
Callum Hudson-Odoi Nottingham Forest Aktiv 152 / 142 40% 1 02.01.2027 -
Tyrhys Dolan Espanyol Aktiv 145 / 131 40% 2 31.12.2026 -
Esteban Lepaul Stade Rennais Aktiv 139 / 139 40% 2 31.12.2026 -
Nehuén Pérez Porto Aktiv 140 / 147 40% 1 31.12.2026 -
Kevin Álvarez Club America Aktiv 134 / 131 40% 1 31.12.2026 -
Roméo Lavia Chelsea Aktiv 139 / 147 40% 2 29.12.2026 -
Marcel Ruiz Crystal Palace Aktiv 137 / 146 40% 1 29.12.2026 -
Crysencio Summerville Al-Hilal Aktiv 140 / 133 40% 1 29.12.2026 -
Eduardo Quaresma Sporting CP Aktiv 142 / 138 40% 1 29.12.2026 -
Sofiane Diop OGC Nice Aktiv 142 / 148 40% 1 20.12.2026 -
Keane Lewis-Potter Brentford Aktiv 140 / 150 40% 2 19.12.2026 -
Jens Petter Hauge Bodo/Glimt Aktiv 138 / 133 40% 1 14.12.2026 -
Sergi Cardona KAA Gent Aktiv 153 / 138 40% 1 13.12.2026 -
Andreas Schjelderup Benfica Aktiv 139 / 139 40% 1 11.12.2026 -
Mamadou Sangaré Brentford Aktiv 146 / 138 40% 2 09.12.2026 -
João Félix Dinamo Moscow Aktiv 159 / 155 40% 1 09.12.2026 -
Matheus Bidu Corinthians Aktiv 134 / 122 40% 1 03.12.2026 -
Gianluca Prestianni Benfica Aktiv 131 / 142 40% 1 30.11.2026 -
Claudio Spinelli Vasco da Gama Aktiv 130 / 126 40% 1 26.11.2026 -
Agustín Palavecino Cruz Azul Aktiv 144 / 138 40% 4 24.11.2026 -
Sadio Mané Al-Nassr Aktiv 150 / 138 40% 1 19.11.2026 -
Gustavo Silva Vitoria Guimaraes Aktiv 118 / 128 40% 1 08.11.2026 -
Juninho Pumas UNAM Aktiv 135 / 121 40% 1 04.11.2026 -
Víctor Gómez Braga Aktiv 143 / 139 40% 2 01.11.2026 -
Samuel Dahl Benfica Aktiv 140 / 134 40% 3 29.10.2026 -
Carlos Rodríguez Cruz Azul Aktiv 142 / 140 40% 2 29.10.2026 -
Heorhii Sudakov Benfica Aktiv 144 / 140 40% 2 24.10.2026 -
Ramón Juárez Club America Aktiv 140 / 141 40% 1 23.10.2026 -
Bongani Khune SuperSport United Aktiv 122 / 132 40% 2 17.10.2026 -
Chuchu Ramírez Nacional Aktiv 129 / 136 40% 2 14.10.2026 -
Luis Suárez Sporting CP Aktiv 149 / 153 40% 3 14.10.2026 -
João Carvalho Estoril Praia Aktiv 125 / 132 40% 2 11.10.2026 -
Fran Navarro Braga Aktiv 122 / 127 40% 4 08.10.2026 -
Juan Muñoz Leiria Aktiv 121 / 121 40% 2 08.10.2026 -
Arthur Cabral Botafogo Aktiv 126 / 124 40% 3 07.10.2026 -
Neymar Santos Aktiv 148 / 150 40% 1 07.10.2026 -
Alejandro Piedrahita Deportivo Pereira Aktiv 124 / 125 40% 2 06.10.2026 -
Ángel Correa River Plate Aktiv 145 / 141 40% 2 01.10.2026 -
Alexey Miranchuk Atlanta United FC Aktiv 137 / 141 40% 2 28.09.2026 -
Henrique Araújo Casa Pia Aktiv 119 / 124 40% 1 25.09.2026 -
José Manuel López Palmeiras Aktiv 132 / 133 40% 1 22.09.2026 -
Sergi Altimira Sporting CP Aktiv 142 / 138 40% 1 18.09.2026 -
Heung-Min Son Los Angeles Football Club Aktiv 159 / 157 40% 2 12.09.2026 -
Héctor Hernández Gil Vicente Aktiv 120 / 120 40% 2 12.09.2026 -
Alfonso Trezza Arouca Aktiv 127 / 121 40% 1 12.09.2026 -
Mohammed Bouldini Académico de Viseu Aktiv 116 / 120 40% 2 10.09.2026 -
Andreas Pereira Palmeiras Aktiv 139 / 136 40% 1 10.09.2026 -
Dawda Camara Alverca Aktiv 119 / 117 40% 1 10.09.2026 -
Francisco Moura Porto Aktiv 140 / 138 40% 1 08.09.2026 -
Alexis Vega Feyenoord Aktiv 137 / 146 40% 1 04.09.2026 -
Petar Musa FC Dallas Aktiv 135 / 134 40% 2 02.09.2026 -
Nélson Oliveira Vitoria Guimaraes Aktiv 119 / 120 40% 1 28.08.2026 -
André Clovis Académico de Viseu Aktiv 113 / 125 40% 2 27.08.2026 -
Rafa Benfica Aktiv 138 / 140 40% 2 27.08.2026 -
Vinícius Lopes Santa Clara Aktiv 116 / 127 40% 2 26.08.2026 -
Giorgos Koutsias Famalicao Aktiv 111 / 121 40% 1 16.08.2026 -
Figueiredo Alverca Aktiv 133 / 130 40% 1 11.08.2026 -
Álvaro Valles Betis Aktiv 140 / 136 40% 1 07.08.2026 -
Unai Simón Athletic Bilbao Aktiv 156 / 161 40% 1 07.08.2026 -
Antonio Sivera Alavés Aktiv 137 / 138 40% 1 05.08.2026 -
Lazar Carević Famalicao Aktiv 121 / 128 40% 1 05.08.2026 -
Ignacio de Arruabarrena Arouca Aktiv 125 / 124 40% 1 03.08.2026 -